Time;durP1;ratioP1;P1;durP2;ratioP2;P2;SDS_P1;SDS_P2;PMS_P1;PMS_P2;Temp;Humidity;BMP_temperature;BMP_pressure;BME280_temperature;BME280_humidity;BME280_pressure;Samples;Min_cycle;Max_cycle;Signal;HPM_P1;HPM_P2
2024/02/08 00:01:51;;;;;;;1.98;1.50;;;7.00;99.90;;;;;;5061816;28;20199;-74
2024/02/08 00:04:17;;;;;;;2.83;1.40;;;7.00;99.90;;;;;;5078662;28;20224;-75
2024/02/08 00:06:43;;;;;;;2.37;1.50;;;7.00;99.90;;;;;;5088665;28;20172;-76
2024/02/08 00:09:08;;;;;;;2.17;1.47;;;7.00;99.90;;;;;;5074397;28;20283;-75
2024/02/08 00:11:34;;;;;;;2.73;2.07;;;7.00;99.90;;;;;;5041965;28;20180;-75
2024/02/08 00:14:00;;;;;;;2.50;1.83;;;7.00;99.90;;;;;;5079164;28;20566;-75
2024/02/08 00:16:27;;;;;;;2.67;2.00;;;7.00;99.90;;;;;;5072277;28;20214;-76
2024/02/08 00:18:54;;;;;;;2.35;1.50;;;7.00;99.90;;;;;;5075396;28;20566;-75
2024/02/08 00:21:20;;;;;;;2.67;1.25;;;7.00;99.90;;;;;;5093456;28;20283;-76
2024/02/08 00:23:46;;;;;;;2.20;1.50;;;6.90;99.90;;;;;;5057844;28;20272;-75
2024/02/08 00:26:11;;;;;;;3.87;1.53;;;6.90;99.90;;;;;;5078033;28;20639;-75
2024/02/08 00:28:39;;;;;;;2.93;1.93;;;6.90;99.90;;;;;;5074999;28;20211;-75
2024/02/08 00:31:06;;;;;;;3.05;1.50;;;6.90;99.90;;;;;;5075389;28;20183;-75
2024/02/08 00:33:33;;;;;;;2.30;1.30;;;6.90;99.90;;;;;;5075019;28;20263;-75
2024/02/08 00:36:00;;;;;;;2.88;1.50;;;6.90;99.90;;;;;;5084633;28;20600;-75
2024/02/08 00:38:29;;;;;;;3.65;1.40;;;6.90;99.90;;;;;;5086685;28;20218;-75
2024/02/08 00:40:55;;;;;;;2.50;1.38;;;6.90;99.90;;;;;;5083235;28;20204;-75
2024/02/08 00:43:21;;;;;;;1.70;1.20;;;6.90;99.90;;;;;;5065320;28;20213;-76
2024/02/08 00:45:47;;;;;;;2.25;1.60;;;6.90;99.90;;;;;;5055473;28;20579;-75
2024/02/08 00:48:12;;;;;;;2.25;1.73;;;6.90;99.90;;;;;;5080092;28;20191;-77
2024/02/08 00:50:38;;;;;;;2.30;1.80;;;6.90;99.90;;;;;;5054976;28;20172;-75
2024/02/08 00:53:05;;;;;;;2.10;1.60;;;6.90;99.90;;;;;;5063019;28;20176;-75
2024/02/08 00:55:34;;;;;;;1.85;1.17;;;6.90;99.90;;;;;;5069772;28;20179;-75
2024/02/08 00:58:00;;;;;;;2.95;2.00;;;6.80;99.90;;;;;;5084249;28;20565;-75
2024/02/08 01:00:28;;;;;;;2.30;1.40;;;6.90;99.90;;;;;;5059991;28;20205;-75
2024/02/08 01:02:57;;;;;;;1.92;1.33;;;6.90;99.90;;;;;;5078321;28;20187;-76
2024/02/08 01:05:23;;;;;;;2.67;1.73;;;6.90;99.90;;;;;;5043418;28;20175;-75
2024/02/08 01:07:49;;;;;;;2.20;1.20;;;6.80;99.90;;;;;;5092513;28;20170;-74
2024/02/08 01:10:15;;;;;;;2.10;1.30;;;6.90;99.90;;;;;;5074324;28;20172;-74
2024/02/08 01:12:43;;;;;;;2.83;1.30;;;6.90;99.90;;;;;;5074055;28;20246;-74
2024/02/08 01:15:14;;;;;;;2.08;1.40;;;6.90;99.90;;;;;;5065503;28;20540;-74
2024/02/08 01:17:41;;;;;;;2.28;1.33;;;6.90;99.90;;;;;;5057356;28;20258;-74
2024/02/08 01:20:07;;;;;;;2.28;1.17;;;6.90;99.90;;;;;;5073835;28;20181;-74
2024/02/08 01:22:32;;;;;;;1.90;1.40;;;6.90;99.90;;;;;;5074178;28;20264;-74
2024/02/08 01:24:58;;;;;;;2.43;1.43;;;6.90;99.90;;;;;;5091877;28;20592;-75
2024/02/08 01:27:23;;;;;;;3.90;1.73;;;6.90;99.90;;;;;;5073380;28;20266;-74
2024/02/08 01:29:50;;;;;;;2.47;1.60;;;6.90;99.90;;;;;;5051643;28;20215;-74
2024/02/08 01:32:17;;;;;;;1.60;1.10;;;6.90;99.90;;;;;;5059495;28;20175;-74
2024/02/08 01:34:46;;;;;;;1.70;1.30;;;6.90;99.90;;;;;;5091437;28;20581;-74
2024/02/08 01:37:13;;;;;;;2.22;1.20;;;6.80;99.90;;;;;;5057292;28;20872;-74
2024/02/08 01:39:40;;;;;;;2.45;1.30;;;6.90;99.90;;;;;;5065954;28;20269;-74
2024/02/08 01:42:13;;;;;;;1.92;1.00;;;6.90;99.90;;;;;;5031022;28;20212;-74
2024/02/08 01:44:45;;;;;;;1.98;1.27;;;6.90;99.90;;;;;;5052805;28;20172;-74
2024/02/08 01:47:12;;;;;;;2.20;1.20;;;6.90;99.90;;;;;;5080394;28;20955;-74
2024/02/08 01:49:38;;;;;;;1.83;1.25;;;6.90;99.90;;;;;;5073362;28;20662;-74
2024/02/08 01:52:04;;;;;;;2.10;1.25;;;7.00;99.90;;;;;;5065910;28;20183;-74
2024/02/08 01:54:30;;;;;;;2.55;1.23;;;7.00;99.90;;;;;;5064673;28;20163;-74
2024/02/08 01:57:03;;;;;;;2.08;1.27;;;7.00;99.90;;;;;;5064440;28;20198;-74
2024/02/08 01:59:31;;;;;;;2.45;1.45;;;7.00;99.90;;;;;;5073052;28;20561;-75
2024/02/08 02:02:01;;;;;;;1.92;1.42;;;7.00;99.90;;;;;;5093988;28;20304;-74
2024/02/08 02:04:30;;;;;;;1.90;1.45;;;7.00;99.90;;;;;;5051327;28;20192;-73
2024/02/08 02:06:58;;;;;;;2.20;2.00;;;7.00;99.90;;;;;;5091368;28;20167;-72
2024/02/08 02:09:24;;;;;;;2.45;1.65;;;7.00;99.90;;;;;;5056515;28;20226;-72
2024/02/08 02:12:10;;;;;;;2.57;1.40;;;7.00;99.90;;;;;;5091150;28;20264;-72
2024/02/08 02:14:38;;;;;;;2.08;1.88;;;7.00;99.90;;;;;;5072787;28;20163;-73
2024/02/08 02:17:25;;;;;;;3.40;1.67;;;7.00;99.90;;;;;;5082432;28;20544;-72
2024/02/08 02:19:52;;;;;;;2.00;1.48;;;7.00;99.90;;;;;;5090522;28;20290;-72
2024/02/08 02:22:19;;;;;;;3.05;1.80;;;7.00;99.90;;;;;;5072545;28;20330;-73
2024/02/08 02:24:48;;;;;;;2.20;1.80;;;7.00;99.90;;;;;;5055516;28;20183;-73
2024/02/08 02:27:15;;;;;;;2.88;1.40;;;7.00;99.90;;;;;;5070771;28;20734;-73
2024/02/08 02:29:42;;;;;;;3.30;1.63;;;7.00;99.90;;;;;;5086547;28;20626;-72
2024/02/08 02:32:15;;;;;;;2.35;1.50;;;7.00;99.90;;;;;;5069467;28;20656;-72
2024/02/08 02:34:44;;;;;;;2.65;2.13;;;7.10;99.90;;;;;;5085816;28;20550;-72
2024/02/08 02:37:11;;;;;;;2.20;1.80;;;7.10;99.90;;;;;;5089976;28;20205;-73
2024/02/08 02:39:36;;;;;;;2.65;1.60;;;7.10;99.90;;;;;;5057312;28;20303;-72
2024/02/08 02:42:02;;;;;;;4.03;2.23;;;7.10;99.90;;;;;;5088398;28;20247;-73
2024/02/08 02:44:28;;;;;;;3.63;2.10;;;7.20;99.90;;;;;;5067219;28;20623;-72
2024/02/08 02:46:56;;;;;;;3.20;2.50;;;7.10;99.90;;;;;;5090255;28;20172;-73
2024/02/08 02:49:23;;;;;;;4.82;2.75;;;7.10;99.90;;;;;;5072427;28;20237;-73
2024/02/08 02:51:49;;;;;;;3.30;2.50;;;7.20;99.90;;;;;;5082002;28;20268;-72
2024/02/08 02:54:19;;;;;;;4.17;3.70;;;7.10;99.90;;;;;;5073472;28;20274;-73
2024/02/08 02:56:47;;;;;;;4.70;3.05;;;7.20;99.90;;;;;;5072516;28;20453;-73
2024/02/08 02:59:17;;;;;;;3.72;3.22;;;7.20;99.90;;;;;;5090579;28;20557;-73
2024/02/08 03:01:49;;;;;;;3.03;2.13;;;7.10;99.90;;;;;;5090471;28;20380;-72
2024/02/08 03:04:16;;;;;;;3.60;2.78;;;7.20;99.90;;;;;;5062782;28;20183;-74
2024/02/08 03:06:45;;;;;;;6.30;2.35;;;7.20;99.90;;;;;;5064633;28;20596;-73
2024/02/08 03:09:23;;;;;;;3.80;2.60;;;7.20;99.90;;;;;;5070829;28;20200;-74
2024/02/08 03:11:49;;;;;;;5.50;2.70;;;7.20;99.90;;;;;;5064062;28;20287;-73
2024/02/08 03:14:15;;;;;;;5.50;3.22;;;7.20;99.90;;;;;;5070662;28;20528;-73
2024/02/08 03:16:45;;;;;;;5.18;2.95;;;7.20;99.90;;;;;;5060028;28;20184;-74
2024/02/08 03:19:11;;;;;;;3.28;2.95;;;7.20;99.90;;;;;;5069238;28;20207;-74
2024/02/08 03:21:40;;;;;;;7.63;4.40;;;7.20;99.90;;;;;;5052608;28;20207;-74
2024/02/08 03:24:09;;;;;;;5.05;4.43;;;7.20;99.90;;;;;;5089650;28;20603;-73
2024/02/08 03:26:46;;;;;;;5.70;4.43;;;7.20;99.90;;;;;;5057777;28;20173;-73
2024/02/08 03:29:13;;;;;;;4.30;3.90;;;7.20;99.90;;;;;;5078418;28;20199;-73
2024/02/08 03:31:46;;;;;;;5.30;4.63;;;7.20;99.90;;;;;;5059592;28;20537;-74
2024/02/08 03:34:16;;;;;;;3.88;3.25;;;7.10;99.90;;;;;;5064441;28;20176;-74
2024/02/08 03:36:51;;;;;;;5.47;4.13;;;7.10;99.90;;;;;;5075595;28;20263;-74
2024/02/08 03:39:24;;;;;;;5.82;3.90;;;7.10;99.90;;;;;;5060425;28;20198;-74
2024/02/08 03:42:00;;;;;;;4.45;3.65;;;7.10;99.90;;;;;;5086902;28;20567;-74
2024/02/08 03:44:29;;;;;;;3.90;3.50;;;7.10;99.90;;;;;;5068277;28;20199;-74
2024/02/08 03:46:56;;;;;;;5.63;4.18;;;7.00;99.90;;;;;;5079317;28;20206;-74
2024/02/08 03:49:26;;;;;;;4.88;3.65;;;7.00;99.90;;;;;;5055556;28;20235;-74
2024/02/08 03:51:53;;;;;;;4.68;3.65;;;7.00;99.90;;;;;;5055564;28;20564;-74
2024/02/08 03:54:19;;;;;;;4.45;3.95;;;6.90;99.90;;;;;;5093205;28;20199;-74
2024/02/08 03:56:49;;;;;;;4.30;3.20;;;6.90;99.90;;;;;;5048795;28;20587;-74
2024/02/08 03:59:26;;;;;;;4.50;3.30;;;6.90;99.90;;;;;;5072166;28;20188;-74
2024/02/08 04:02:03;;;;;;;8.25;4.00;;;6.90;99.90;;;;;;5073757;28;20733;-74
2024/02/08 04:08:02;;;;;;;3.65;2.90;;;6.90;99.90;;;;;;5002437;28;20183;-74
2024/02/08 04:54:09;;;;;;;5.45;3.90;;;7.30;99.90;;;;;;5034123;28;20704;-76
2024/02/08 04:56:38;;;;;;;5.63;5.07;;;7.30;99.90;;;;;;5051283;28;20187;-76
2024/02/08 04:59:05;;;;;;;4.57;3.78;;;7.20;99.90;;;;;;5026194;28;20181;-76
2024/02/08 05:01:38;;;;;;;4.70;3.78;;;7.20;99.90;;;;;;5052361;28;20212;-76
2024/02/08 05:04:04;;;;;;;5.75;4.70;;;7.20;99.90;;;;;;5035644;28;20204;-76
2024/02/08 05:06:30;;;;;;;5.45;3.92;;;7.20;99.90;;;;;;5034526;28;20824;-76
2024/02/08 05:08:59;;;;;;;3.97;3.55;;;7.20;99.90;;;;;;5052173;28;20204;-76
2024/02/08 05:11:28;;;;;;;4.60;4.20;;;7.20;99.90;;;;;;5044485;28;20622;-76
2024/02/08 05:14:00;;;;;;;5.70;4.70;;;7.20;99.90;;;;;;5017626;28;20214;-76
2024/02/08 05:16:30;;;;;;;4.65;4.25;;;7.20;99.90;;;;;;5037201;28;20224;-77
2024/02/08 05:18:56;;;;;;;7.55;6.07;;;7.30;99.90;;;;;;5017369;28;20177;-77
2024/02/08 05:21:28;;;;;;;6.10;4.27;;;7.30;99.90;;;;;;5025805;28;20203;-76
2024/02/08 05:23:58;;;;;;;4.43;4.07;;;7.20;99.90;;;;;;5037976;28;20540;-76
2024/02/08 05:26:31;;;;;;;7.47;4.43;;;7.30;99.90;;;;;;5048137;28;20177;-77
2024/02/08 05:28:57;;;;;;;4.72;4.00;;;7.30;99.90;;;;;;5049822;28;20177;-76
2024/02/08 05:31:27;;;;;;;5.28;4.18;;;7.30;99.90;;;;;;5023382;28;20177;-76
2024/02/08 05:33:56;;;;;;;5.63;4.93;;;7.30;99.90;;;;;;5051322;28;20196;-76
2024/02/08 05:36:23;;;;;;;6.15;5.18;;;7.30;99.90;;;;;;5033135;28;20674;-76
2024/02/08 05:38:52;;;;;;;5.22;4.53;;;7.30;99.90;;;;;;5029076;28;20212;-76
2024/02/08 05:41:22;;;;;;;4.85;4.10;;;7.30;99.90;;;;;;5016807;28;20573;-76
2024/02/08 05:43:51;;;;;;;9.23;4.93;;;7.30;99.90;;;;;;5046657;28;20209;-76
2024/02/08 05:46:25;;;;;;;6.22;5.57;;;7.30;99.90;;;;;;5042317;28;20627;-76
2024/02/08 05:49:04;;;;;;;14.20;7.43;;;7.30;99.90;;;;;;5048378;28;20191;-76
2024/02/08 05:51:33;;;;;;;7.00;5.90;;;7.20;99.90;;;;;;5047953;28;20528;-77
2024/02/08 05:54:02;;;;;;;6.95;6.25;;;7.20;99.90;;;;;;5016080;28;20227;-77
2024/02/08 05:56:33;;;;;;;8.07;5.70;;;7.20;99.90;;;;;;5042520;28;20177;-76
2024/02/08 05:59:05;;;;;;;7.95;6.63;;;7.20;99.90;;;;;;5043225;28;20658;-76
2024/02/08 06:01:44;;;;;;;7.72;6.47;;;7.30;99.90;;;;;;5033375;28;20284;-76
2024/02/08 06:04:22;;;;;;;10.77;6.88;;;7.30;99.90;;;;;;5048767;28;20547;-76
2024/02/08 06:06:53;;;;;;;7.45;5.95;;;7.20;99.90;;;;;;5019107;28;20173;-77
2024/02/08 06:09:42;;;;;;;8.10;6.07;;;7.20;99.90;;;;;;5016459;28;20181;-77
2024/02/08 06:12:09;;;;;;;7.88;5.75;;;7.10;99.90;;;;;;5051497;28;20230;-76
2024/02/08 06:14:38;;;;;;;9.70;6.80;;;7.10;99.90;;;;;;5033055;28;20212;-77
2024/02/08 06:17:08;;;;;;;8.10;6.53;;;7.10;99.90;;;;;;5007795;28;20624;-77
2024/02/08 06:19:37;;;;;;;11.98;6.55;;;6.90;99.90;;;;;;5018242;28;20189;-77
2024/02/08 06:22:19;;;;;;;9.35;6.47;;;6.90;99.90;;;;;;5042256;28;20212;-77
2024/02/08 06:24:47;;;;;;;6.53;5.70;;;6.80;99.90;;;;;;5021937;28;20250;-76
2024/02/08 06:27:15;;;;;;;6.53;5.05;;;6.80;99.90;;;;;;5030948;28;20169;-76
2024/02/08 06:29:49;;;;;;;7.88;4.90;;;6.80;99.90;;;;;;5018347;28;20226;-77
2024/02/08 06:35:09;;;;;;;8.10;5.43;;;6.90;99.90;;;;;;5050409;28;20204;-76
2024/02/08 06:37:45;;;;;;;8.32;5.00;;;6.90;99.90;;;;;;5019831;28;20783;-76
2024/02/08 06:40:21;;;;;;;5.00;4.30;;;6.90;99.90;;;;;;5033202;28;20264;-76
2024/02/08 06:45:40;;;;;;;8.45;5.15;;;6.90;99.90;;;;;;5023935;28;20188;-76
2024/02/08 07:37:25;;;;;;;7.32;5.03;;;6.60;99.90;;;;;;5056015;28;20515;-78
2024/02/08 07:40:01;;;;;;;9.07;4.20;;;6.60;99.90;;;;;;5048178;28;20182;-77
2024/02/08 07:42:41;;;;;;;5.72;4.05;;;6.60;99.90;;;;;;5032771;28;21228;-77
2024/02/08 07:45:12;;;;;;;8.05;5.15;;;6.70;99.90;;;;;;5016642;28;20199;-77
2024/02/08 07:47:39;;;;;;;7.57;4.68;;;6.70;99.90;;;;;;5036664;28;20541;-77
2024/02/08 07:50:09;;;;;;;8.05;5.45;;;6.70;99.90;;;;;;5020312;28;20178;-77
2024/02/08 07:52:45;;;;;;;6.88;5.07;;;6.80;99.90;;;;;;5016686;28;20188;-77
2024/02/08 07:55:20;;;;;;;8.63;5.10;;;6.80;99.90;;;;;;5036050;28;20609;-77
2024/02/08 07:57:57;;;;;;;7.97;5.22;;;6.80;99.90;;;;;;5049599;28;20644;-75
2024/02/08 08:00:42;;;;;;;6.22;4.75;;;6.90;99.90;;;;;;5016659;28;20246;-76
2024/02/08 08:03:09;;;;;;;7.35;4.18;;;6.90;99.90;;;;;;5033911;28;20275;-75
2024/02/08 08:05:41;;;;;;;6.50;4.50;;;6.90;99.90;;;;;;5034687;28;20230;-76
2024/02/08 08:08:31;;;;;;;4.95;3.50;;;6.90;99.90;;;;;;5018886;28;20180;-75
2024/02/08 08:11:15;;;;;;;6.57;3.53;;;6.90;99.90;;;;;;5047013;28;20186;-76
2024/02/08 08:14:06;;;;;;;6.85;4.22;;;6.80;99.90;;;;;;5024053;28;20208;-75
2024/02/08 08:19:09;;;;;;;7.38;4.13;;;6.80;99.90;;;;;;5040767;28;20173;-76
2024/02/08 08:24:27;;;;;;;6.30;3.72;;;6.80;99.90;;;;;;5023484;28;20193;-75
2024/02/08 08:27:06;;;;;;;6.25;4.60;;;6.90;99.90;;;;;;5018451;28;20178;-75
2024/02/08 08:29:44;;;;;;;4.95;3.53;;;6.90;99.90;;;;;;5044824;28;20181;-75
2024/02/08 08:37:44;;;;;;;5.22;4.30;;;7.00;99.90;;;;;;5029288;28;20173;-76
2024/02/08 08:43:09;;;;;;;3.88;3.15;;;7.00;99.90;;;;;;5039444;28;20189;-76
2024/02/08 08:45:36;;;;;;;4.20;3.22;;;7.00;99.90;;;;;;5024873;28;20212;-75
2024/02/08 08:48:02;;;;;;;5.13;3.85;;;7.10;99.90;;;;;;5044086;28;20209;-75
2024/02/08 08:50:33;;;;;;;7.37;5.40;;;7.10;99.90;;;;;;5058108;28;20181;-77
2024/02/08 08:53:16;;;;;;;7.63;4.68;;;7.10;99.90;;;;;;5056271;28;20571;-76
2024/02/08 08:55:49;;;;;;;4.78;3.10;;;7.10;99.90;;;;;;5042515;28;20187;-76
2024/02/08 08:58:22;;;;;;;6.65;2.70;;;7.10;99.90;;;;;;5019902;28;20186;-75
2024/02/08 09:00:58;;;;;;;6.82;4.25;;;7.20;99.90;;;;;;5018557;28;20354;-76
2024/02/08 09:03:27;;;;;;;4.97;3.80;;;7.30;99.90;;;;;;5045101;28;20248;-76
2024/02/08 09:06:02;;;;;;;5.35;3.80;;;7.30;99.90;;;;;;5024335;28;20165;-76
2024/02/08 09:08:42;;;;;;;5.50;3.83;;;7.30;99.90;;;;;;5041346;28;20266;-75
2024/02/08 09:11:12;;;;;;;4.85;3.15;;;7.30;99.90;;;;;;5023114;28;20225;-76
2024/02/08 09:13:42;;;;;;;5.97;3.67;;;7.30;99.90;;;;;;5038942;28;20219;-75
2024/02/08 09:21:35;;;;;;;5.72;3.42;;;7.30;99.90;;;;;;5059752;28;20197;-76
2024/02/08 09:24:05;;;;;;;7.07;3.30;;;7.40;99.90;;;;;;5037945;28;20212;-75
2024/02/08 09:27:00;;;;;;;6.78;3.70;;;7.40;99.90;;;;;;5046894;28;20608;-75
2024/02/08 09:29:27;;;;;;;5.28;3.17;;;7.50;99.90;;;;;;5010571;28;20301;-76
2024/02/08 09:31:58;;;;;;;4.80;2.58;;;7.50;99.90;;;;;;5057240;28;20205;-75
2024/02/08 09:34:37;;;;;;;5.15;3.45;;;7.60;99.90;;;;;;5030879;28;20213;-75
2024/02/08 09:37:09;;;;;;;5.10;3.30;;;7.50;99.90;;;;;;5035773;28;20197;-76
2024/02/08 09:39:53;;;;;;;6.43;3.60;;;7.50;99.90;;;;;;5000438;28;20181;-76
2024/02/08 09:42:26;;;;;;;6.55;4.07;;;7.50;99.90;;;;;;5020647;28;20259;-75
2024/02/08 09:45:44;;;;;;;4.68;3.50;;;7.50;99.90;;;;;;5045205;28;20221;-75
2024/02/08 09:47:52;;;;;;;6.00;3.58;;;7.50;99.90;;;;;;5000468;28;20234;-76
2024/02/08 09:50:31;;;;;;;6.95;3.80;;;7.50;99.90;;;;;;5047775;28;20240;-76
2024/02/08 09:53:07;;;;;;;6.78;4.40;;;7.50;99.90;;;;;;5046800;28;20220;-76
2024/02/08 09:55:33;;;;;;;5.07;3.58;;;7.50;99.90;;;;;;5013342;28;20221;-76
2024/02/08 09:58:04;;;;;;;4.50;3.17;;;7.40;99.90;;;;;;5013671;28;20205;-76
2024/02/08 10:03:31;;;;;;;6.03;4.80;;;7.40;99.90;;;;;;5003230;28;20202;-76
2024/02/08 10:06:12;;;;;;;5.43;3.95;;;7.40;99.90;;;;;;5013639;28;20173;-76
2024/02/08 10:09:08;;;;;;;7.35;5.30;;;7.30;99.90;;;;;;5014415;28;20242;-76
2024/02/08 10:11:43;;;;;;;5.65;4.20;;;7.30;99.90;;;;;;5015000;28;20573;-76
2024/02/08 10:14:55;;;;;;;4.28;3.72;;;7.30;99.90;;;;;;5015821;28;20360;-75
2024/02/08 10:17:00;;;;;;;4.05;2.70;;;7.30;99.90;;;;;;5025395;28;20216;-75
2024/02/08 10:22:17;;;;;;;5.40;3.90;;;7.20;99.90;;;;;;5013540;28;20201;-76
2024/02/08 10:27:21;;;;;;;4.95;3.65;;;7.20;99.90;;;;;;5013375;28;20193;-76
2024/02/08 10:30:05;;;;;;;8.95;3.33;;;7.20;99.90;;;;;;5010623;28;20197;-77
2024/02/08 10:32:34;;;;;;;4.90;3.40;;;7.20;99.90;;;;;;5029096;28;20227;-76
2024/02/08 10:35:13;;;;;;;7.55;4.55;;;7.20;99.90;;;;;;5045484;28;20220;-77
2024/02/08 10:38:08;;;;;;;3.95;3.35;;;7.30;99.90;;;;;;5012773;28;20185;-76
2024/02/08 10:40:34;;;;;;;4.20;3.33;;;7.20;99.90;;;;;;5033465;28;20290;-76
2024/02/08 10:43:16;;;;;;;4.15;2.70;;;7.20;99.90;;;;;;5012945;28;20620;-76
2024/02/08 10:45:53;;;;;;;4.95;3.60;;;7.20;99.90;;;;;;5012388;28;20181;-76
2024/02/08 10:48:23;;;;;;;4.45;3.25;;;7.20;99.90;;;;;;5012707;28;20192;-76
2024/02/08 10:50:52;;;;;;;6.80;3.70;;;7.20;99.90;;;;;;5030672;28;20186;-77
2024/02/08 10:53:43;;;;;;;5.88;4.10;;;7.30;99.90;;;;;;5046136;28;20209;-77
2024/02/08 10:56:14;;;;;;;5.40;3.70;;;7.30;99.90;;;;;;5014429;28;20275;-77
2024/02/08 11:04:30;;;;;;;3.58;2.90;;;7.40;99.90;;;;;;4990527;28;20209;-77
2024/02/08 11:07:18;;;;;;;5.47;3.55;;;7.40;99.90;;;;;;5004901;28;20185;-78
2024/02/08 11:09:45;;;;;;;4.28;2.60;;;7.40;99.90;;;;;;5012682;28;20178;-78
2024/02/08 11:12:14;;;;;;;4.93;2.92;;;7.40;99.90;;;;;;5016265;28;20185;-78
2024/02/08 11:14:51;;;;;;;5.03;3.33;;;7.40;99.90;;;;;;5033517;28;20212;-78
2024/02/08 11:17:21;;;;;;;4.72;3.50;;;7.50;99.90;;;;;;5031098;28;20223;-77
2024/02/08 11:19:57;;;;;;;5.15;3.15;;;7.50;99.90;;;;;;5013246;28;20203;-78
2024/02/08 11:22:34;;;;;;;4.93;3.42;;;7.50;99.90;;;;;;5039696;28;20200;-77
2024/02/08 11:25:18;;;;;;;3.90;2.70;;;7.60;99.90;;;;;;5030161;28;20604;-78
2024/02/08 11:27:49;;;;;;;4.75;2.90;;;7.60;99.90;;;;;;5012010;28;20265;-78
2024/02/08 11:30:19;;;;;;;4.70;2.80;;;7.60;99.90;;;;;;5012209;28;20180;-78
2024/02/08 11:33:02;;;;;;;3.58;2.55;;;7.60;99.90;;;;;;5020809;28;20200;-78
2024/02/08 11:35:32;;;;;;;3.95;2.85;;;7.70;99.90;;;;;;5039101;28;20177;-78
2024/02/08 11:38:15;;;;;;;4.10;2.72;;;7.70;99.90;;;;;;5028478;28;20616;-78
2024/02/08 11:40:45;;;;;;;3.65;2.83;;;7.70;99.90;;;;;;5012165;28;20185;-78
2024/02/08 11:43:25;;;;;;;4.10;2.78;;;7.70;99.90;;;;;;5012344;28;20660;-78
2024/02/08 11:45:55;;;;;;;3.75;3.00;;;7.80;99.90;;;;;;5029655;28;20205;-78
2024/02/08 11:48:31;;;;;;;3.55;2.83;;;7.80;99.90;;;;;;5012292;28;20208;-78
2024/02/08 11:51:22;;;;;;;5.32;2.70;;;7.80;99.90;;;;;;5028851;28;20217;-79
2024/02/08 11:53:51;;;;;;;3.75;2.63;;;7.80;99.90;;;;;;5045060;28;20197;-78
2024/02/08 11:56:20;;;;;;;2.65;2.33;;;7.90;99.90;;;;;;5049495;28;20324;-78
2024/02/08 11:58:49;;;;;;;2.83;2.13;;;8.00;99.90;;;;;;5011893;28;20201;-78
2024/02/08 12:01:17;;;;;;;3.53;2.17;;;8.00;99.90;;;;;;5045286;28;20209;-79
2024/02/08 12:03:44;;;;;;;3.00;2.22;;;8.00;99.90;;;;;;5027745;28;20263;-78
2024/02/08 12:06:21;;;;;;;3.35;2.85;;;8.00;99.90;;;;;;5029864;28;20189;-78
2024/02/08 12:08:57;;;;;;;2.55;2.05;;;8.00;99.90;;;;;;5028292;28;20538;-78
2024/02/08 12:11:24;;;;;;;3.80;2.08;;;8.10;99.90;;;;;;5012352;28;20184;-78
2024/02/08 12:13:56;;;;;;;4.40;3.60;;;8.10;99.90;;;;;;5029885;28;20641;-78
2024/02/08 12:16:26;;;;;;;3.35;3.00;;;8.10;99.90;;;;;;5020261;28;20228;-78
2024/02/08 12:19:05;;;;;;;3.97;2.85;;;8.10;99.90;;;;;;5031363;28;20528;-77
2024/02/08 12:21:32;;;;;;;3.63;2.55;;;8.20;99.90;;;;;;5048184;28;20216;-77
2024/02/08 12:23:59;;;;;;;3.00;2.60;;;8.20;99.90;;;;;;5032765;28;20830;-78
2024/02/08 12:26:30;;;;;;;3.60;2.83;;;8.20;99.90;;;;;;5016084;28;20209;-79
2024/02/08 12:28:57;;;;;;;5.75;3.35;;;8.30;99.90;;;;;;5030991;28;20185;-78
2024/02/08 12:31:24;;;;;;;4.13;3.08;;;8.40;99.90;;;;;;5014893;28;20166;-78
2024/02/08 12:33:51;;;;;;;3.65;2.55;;;8.40;99.90;;;;;;5029106;28;20205;-78
2024/02/08 12:36:20;;;;;;;3.17;2.10;;;8.40;99.90;;;;;;5012200;28;20264;-78
2024/02/08 12:38:47;;;;;;;4.22;2.67;;;8.50;99.90;;;;;;5036877;28;20229;-78
2024/02/08 12:41:15;;;;;;;3.97;2.70;;;8.60;99.90;;;;;;5028409;28;20198;-78
2024/02/08 12:43:42;;;;;;;3.28;2.05;;;8.60;99.90;;;;;;5011802;28;20217;-78
2024/02/08 12:46:08;;;;;;;4.32;3.65;;;8.70;99.90;;;;;;5031933;28;20185;-78
2024/02/08 12:48:35;;;;;;;5.10;3.30;;;8.70;99.90;;;;;;5048242;28;20543;-78
2024/02/08 12:51:03;;;;;;;4.13;2.47;;;8.60;99.90;;;;;;5015354;28;20205;-78
2024/02/08 12:53:33;;;;;;;5.38;3.40;;;8.70;99.90;;;;;;5014964;28;20543;-78
2024/02/08 12:56:09;;;;;;;5.40;3.10;;;8.70;99.90;;;;;;5031757;28;20251;-78
2024/02/08 12:58:35;;;;;;;4.90;3.55;;;8.80;99.90;;;;;;5014789;28;20599;-77
2024/02/08 13:01:04;;;;;;;5.80;3.63;;;8.90;99.90;;;;;;5014892;28;20201;-78
2024/02/08 13:03:37;;;;;;;5.40;4.70;;;8.90;99.90;;;;;;5014819;28;20689;-77
2024/02/08 13:06:04;;;;;;;5.10;4.07;;;8.90;99.90;;;;;;5014848;28;20170;-78
2024/02/08 13:08:35;;;;;;;6.05;3.60;;;8.90;99.90;;;;;;5071118;22;20224;-75
2024/02/08 13:11:01;;;;;;;7.38;4.40;;;8.90;99.90;;;;;;5069346;28;20184;-76
2024/02/08 13:13:28;;;;;;;5.13;4.00;;;8.80;99.90;;;;;;5081982;28;20182;-76
2024/02/08 13:16:04;;;;;;;5.32;3.40;;;8.90;99.90;;;;;;5069038;28;20183;-75
2024/02/08 13:18:30;;;;;;;4.13;2.83;;;8.80;99.90;;;;;;5087235;28;20271;-75
2024/02/08 13:21:00;;;;;;;4.90;3.28;;;8.90;99.90;;;;;;5064487;28;20212;-75
2024/02/08 13:23:29;;;;;;;3.55;2.95;;;8.90;99.90;;;;;;5071801;28;20176;-75
2024/02/08 13:25:56;;;;;;;4.32;3.13;;;8.90;99.90;;;;;;5026656;28;20173;-75
2024/02/08 13:28:25;;;;;;;5.95;4.35;;;9.00;99.90;;;;;;5053614;28;20660;-75
2024/02/08 13:30:56;;;;;;;4.70;3.75;;;9.00;99.90;;;;;;5052227;28;20177;-75
2024/02/08 13:33:21;;;;;;;5.85;3.95;;;9.00;99.90;;;;;;5036840;28;20176;-75
2024/02/08 13:35:47;;;;;;;6.13;4.13;;;9.10;99.90;;;;;;5055458;28;20206;-73
2024/02/08 13:38:15;;;;;;;5.45;4.60;;;9.10;99.90;;;;;;5058886;28;20666;-73
2024/02/08 13:40:47;;;;;;;5.70;4.57;;;9.10;99.90;;;;;;5036993;28;20183;-73
2024/02/08 13:43:16;;;;;;;7.68;6.40;;;9.10;99.90;;;;;;5053294;28;20203;-74
2024/02/08 13:45:42;;;;;;;6.30;4.97;;;9.20;99.90;;;;;;5077843;28;20237;-73
2024/02/08 13:48:14;;;;;;;4.20;3.80;;;9.20;99.90;;;;;;5086142;28;20203;-74
2024/02/08 13:50:43;;;;;;;4.38;3.38;;;9.30;99.90;;;;;;5071242;28;20184;-73
2024/02/08 13:53:15;;;;;;;3.70;3.40;;;9.20;99.90;;;;;;5071281;28;20180;-74
2024/02/08 13:55:52;;;;;;;4.63;3.78;;;9.30;99.90;;;;;;5052149;28;20188;-76
2024/02/08 13:58:21;;;;;;;4.82;4.43;;;9.30;99.90;;;;;;5052554;28;20188;-75
2024/02/08 14:00:47;;;;;;;3.72;3.20;;;9.30;99.90;;;;;;5071033;28;20172;-74
2024/02/08 14:03:17;;;;;;;4.60;3.55;;;9.30;99.90;;;;;;5052157;28;20172;-73
2024/02/08 14:05:48;;;;;;;5.60;4.38;;;9.40;99.90;;;;;;5083213;28;20186;-76
2024/02/08 14:08:17;;;;;;;6.40;3.42;;;9.40;99.90;;;;;;5093870;28;20234;-76
2024/02/08 14:10:43;;;;;;;4.25;3.65;;;9.40;99.90;;;;;;5097428;28;20182;-76
2024/02/08 14:13:11;;;;;;;4.95;4.45;;;9.50;99.90;;;;;;5085934;28;20196;-76
2024/02/08 14:15:47;;;;;;;6.00;4.70;;;9.50;99.90;;;;;;5091305;28;20176;-75
2024/02/08 14:18:22;;;;;;;3.20;2.90;;;9.50;99.90;;;;;;5084218;28;20227;-75
2024/02/08 14:20:55;;;;;;;4.40;4.00;;;9.60;99.90;;;;;;5083666;28;20182;-76
2024/02/08 14:23:31;;;;;;;5.63;4.70;;;9.70;99.90;;;;;;5083745;28;20187;-75
2024/02/08 14:26:09;;;;;;;4.47;3.30;;;9.70;99.90;;;;;;5082494;28;20179;-76
2024/02/08 14:28:42;;;;;;;7.55;4.68;;;9.70;99.90;;;;;;5081741;28;20195;-75
2024/02/08 14:31:09;;;;;;;4.95;3.83;;;9.70;99.90;;;;;;5064195;28;20179;-75
2024/02/08 14:33:35;;;;;;;5.22;3.72;;;9.70;99.90;;;;;;5065166;28;20244;-76
2024/02/08 14:36:08;;;;;;;5.53;4.30;;;9.70;99.90;;;;;;5083852;28;20191;-76
2024/02/08 14:38:41;;;;;;;3.95;3.38;;;9.70;99.90;;;;;;5064545;28;20191;-76
2024/02/08 14:41:25;;;;;;;4.70;3.63;;;9.70;99.90;;;;;;5082849;28;20563;-76
2024/02/08 14:43:54;;;;;;;5.70;3.72;;;9.70;99.90;;;;;;5043448;28;20176;-76
2024/02/08 14:46:26;;;;;;;5.65;4.10;;;9.80;99.90;;;;;;5070226;28;20251;-76
2024/02/08 14:48:53;;;;;;;4.80;3.40;;;9.80;99.90;;;;;;5052272;28;20223;-76
2024/02/08 14:53:45;;;;;;;4.40;3.70;;;9.80;99.90;;;;;;5069536;28;20546;-75
2024/02/08 14:56:18;;;;;;;5.53;3.80;;;9.80;99.90;;;;;;5052541;28;20180;-75
2024/02/08 14:59:09;;;;;;;6.97;5.47;;;9.80;99.90;;;;;;5018691;28;20626;-76
2024/02/08 15:01:38;;;;;;;5.47;4.53;;;9.80;99.90;;;;;;5052416;28;20200;-76
2024/02/08 15:04:21;;;;;;;5.18;4.68;;;9.80;99.90;;;;;;5050972;28;20172;-76
2024/02/08 15:09:47;;;;;;;5.43;3.83;;;9.80;99.90;;;;;;5066796;28;20323;-76
2024/02/08 15:12:27;;;;;;;6.60;4.63;;;9.80;99.90;;;;;;5048487;28;20183;-76
2024/02/08 15:14:56;;;;;;;5.88;5.00;;;9.80;99.90;;;;;;5062512;28;20207;-76
2024/02/08 15:17:27;;;;;;;4.93;4.43;;;9.80;99.90;;;;;;5061798;28;20173;-75
2024/02/08 15:19:53;;;;;;;5.30;4.25;;;9.90;99.90;;;;;;5060699;28;20212;-75
2024/02/08 15:25:05;;;;;;;6.03;5.43;;;10.00;99.90;;;;;;5064942;28;20563;-75
2024/02/08 15:27:52;;;;;;;8.00;6.32;;;10.00;99.90;;;;;;5062421;28;20195;-76
2024/02/08 15:30:36;;;;;;;7.35;5.20;;;10.00;99.90;;;;;;5045135;28;20231;-76
2024/02/08 15:33:16;;;;;;;6.00;5.22;;;10.10;99.90;;;;;;5068012;28;20176;-76
2024/02/08 15:35:52;;;;;;;6.32;5.20;;;10.10;99.90;;;;;;5064282;28;20180;-75
2024/02/08 15:41:17;;;;;;;9.85;6.65;;;10.20;99.90;;;;;;5084316;28;20169;-75
2024/02/08 15:43:48;;;;;;;8.10;6.63;;;10.30;99.90;;;;;;5067041;28;20179;-76
2024/02/08 15:46:20;;;;;;;10.13;7.20;;;10.30;99.90;;;;;;5066353;28;20192;-76